createdAt,value
2022-12-20T00:03:21.998Z,4.96
2022-12-20T00:08:24.576Z,4.89
2022-12-20T00:13:27.329Z,4.9
2022-12-20T00:18:29.892Z,4.96
2022-12-20T00:23:32.634Z,4.95
2022-12-20T00:28:35.330Z,4.93
2022-12-20T00:33:37.979Z,4.9
2022-12-20T00:38:40.553Z,4.92
2022-12-20T00:43:43.437Z,4.95
2022-12-20T00:48:46.048Z,4.95
2022-12-20T00:53:48.868Z,5
2022-12-20T00:58:51.440Z,4.99
2022-12-20T01:03:54.458Z,4.96
2022-12-20T01:08:57.187Z,4.98
2022-12-20T01:13:59.727Z,4.99
2022-12-20T01:19:02.257Z,5.07
2022-12-20T01:24:05.167Z,5.09
2022-12-20T01:29:07.517Z,5.14
2022-12-20T01:34:10.162Z,5.19
2022-12-20T01:39:12.768Z,5.22
2022-12-20T01:44:15.344Z,5.27
2022-12-20T01:49:18.173Z,5.21
2022-12-20T01:54:21.074Z,5.19
2022-12-20T01:59:23.480Z,5.18
2022-12-20T02:04:26.137Z,5.17
2022-12-20T02:09:28.735Z,5.14
2022-12-20T02:19:34.113Z,5.13
2022-12-20T02:29:40.265Z,5.24
2022-12-20T02:34:42.776Z,5.24
2022-12-20T02:39:45.375Z,5.23
2022-12-20T02:44:50.816Z,5.31
2022-12-20T02:49:53.633Z,5.42
2022-12-20T02:54:56.405Z,5.39
2022-12-20T02:59:59.664Z,5.44
2022-12-20T03:05:02.343Z,5.44
2022-12-20T03:10:04.820Z,5.51
2022-12-20T03:15:07.522Z,5.56
2022-12-20T03:20:10.165Z,5.57
2022-12-20T03:25:12.744Z,5.64
2022-12-20T03:35:18.082Z,5.78
2022-12-20T03:40:20.795Z,5.87
2022-12-20T03:45:23.578Z,5.88
2022-12-20T03:50:26.274Z,5.93
2022-12-20T03:55:28.969Z,5.88
2022-12-20T04:00:31.486Z,5.8
2022-12-20T04:05:34.260Z,5.77
2022-12-20T04:10:36.837Z,5.78
2022-12-20T04:15:39.500Z,5.82
2022-12-20T04:20:42.221Z,5.74
2022-12-20T04:25:44.848Z,5.75
2022-12-20T04:30:47.390Z,5.66
2022-12-20T04:40:52.986Z,5.54
2022-12-20T04:45:55.597Z,5.48
2022-12-20T04:50:58.066Z,5.43
2022-12-20T04:56:03.499Z,5.37
2022-12-20T05:01:09.246Z,5.27
2022-12-20T05:06:12.015Z,5.28
2022-12-20T05:11:14.654Z,5.35
2022-12-20T05:16:17.350Z,5.47
2022-12-20T05:21:20.086Z,5.53
2022-12-20T05:26:25.586Z,5.62
2022-12-20T05:31:28.324Z,5.63
2022-12-20T05:36:30.951Z,5.66
2022-12-20T05:41:33.721Z,5.75
2022-12-20T05:46:36.386Z,5.75
2022-12-20T05:51:38.961Z,5.88
2022-12-20T05:56:41.600Z,5.88
2022-12-20T06:01:44.122Z,5.97
2022-12-20T06:06:46.668Z,6.01
2022-12-20T06:11:49.381Z,6.12
2022-12-20T06:16:51.865Z,6.11
2022-12-20T06:21:54.523Z,6.17
2022-12-20T06:26:57.362Z,6.15
2022-12-20T06:32:00.074Z,6.21
2022-12-20T06:37:02.484Z,6.19
2022-12-20T06:42:05.297Z,6.22
2022-12-20T06:52:11.946Z,6.18
2022-12-20T06:57:14.749Z,6.18
2022-12-20T07:02:17.777Z,6.26
2022-12-20T07:07:20.137Z,6.36
2022-12-20T07:12:22.944Z,6.36
2022-12-20T07:17:25.732Z,6.35
2022-12-20T07:22:28.490Z,6.37
2022-12-20T07:27:31.112Z,6.44
2022-12-20T07:32:33.828Z,6.49
2022-12-20T07:37:36.731Z,6.53
2022-12-20T07:47:42.306Z,6.6
2022-12-20T07:52:45.021Z,6.62
2022-12-20T07:57:47.617Z,6.59
2022-12-20T08:02:51.809Z,6.65
2022-12-20T08:07:58.870Z,6.67
2022-12-20T08:12:57.135Z,6.64
2022-12-20T08:17:59.971Z,6.67
2022-12-20T08:23:02.400Z,6.7
2022-12-20T08:28:05.327Z,6.66
2022-12-20T08:33:07.751Z,6.7
2022-12-20T08:38:10.758Z,6.74
2022-12-20T08:43:13.639Z,6.85
2022-12-20T08:48:16.241Z,6.93
2022-12-20T08:53:18.913Z,6.99
2022-12-20T08:58:29.742Z,7.08
2022-12-20T09:03:32.489Z,7.06
2022-12-20T09:13:43.590Z,7.24
2022-12-20T09:18:40.546Z,7.4
2022-12-20T09:23:43.319Z,7.5
2022-12-20T09:28:45.953Z,7.62
2022-12-20T09:33:48.840Z,7.87
2022-12-20T09:38:51.747Z,8.04
2022-12-20T09:54:00.307Z,8.54
2022-12-20T09:59:02.845Z,8.45
2022-12-20T10:04:05.810Z,8.51
2022-12-20T10:09:08.545Z,8.38
2022-12-20T10:14:11.194Z,8.48
2022-12-20T10:19:17.124Z,8.56
2022-12-20T10:24:22.326Z,8.57
2022-12-20T10:29:25.040Z,8.53
2022-12-20T10:34:31.769Z,8.54
2022-12-20T10:39:30.423Z,8.62
2022-12-20T10:44:35.928Z,8.91
2022-12-20T10:49:40.730Z,9.08
2022-12-20T10:54:41.415Z,9.02
2022-12-20T11:04:56.593Z,9.11
2022-12-20T11:09:59.329Z,9.11
2022-12-20T11:15:04.675Z,8.99
2022-12-20T11:20:07.445Z,9.12
2022-12-20T11:25:10.069Z,9.12
2022-12-20T11:30:12.798Z,9.22
2022-12-20T11:35:15.480Z,9.2
2022-12-20T11:40:18.279Z,9.24
2022-12-20T11:45:20.965Z,9.41
2022-12-20T11:50:23.698Z,9.46
2022-12-20T11:55:26.273Z,9.44
2022-12-20T12:00:28.904Z,9.56
2022-12-20T12:05:31.582Z,9.61
2022-12-20T12:10:34.174Z,9.55
2022-12-20T12:15:36.852Z,9.67
2022-12-20T12:20:39.688Z,9.82
2022-12-20T12:25:42.149Z,9.75
2022-12-20T12:30:44.824Z,9.69
2022-12-20T12:40:52.651Z,9.64
2022-12-20T12:45:52.720Z,9.66
2022-12-20T12:50:55.343Z,9.66
2022-12-20T12:56:13.132Z,9.63
2022-12-20T13:01:00.811Z,9.81
2022-12-20T13:06:12.728Z,9.74
2022-12-20T13:11:15.573Z,9.71
2022-12-20T13:16:17.964Z,9.62
2022-12-20T13:21:20.783Z,9.45
2022-12-20T13:26:23.354Z,9.36
2022-12-20T13:31:25.893Z,9.35
2022-12-20T13:36:28.478Z,9.27
2022-12-20T13:41:34.975Z,9.24
2022-12-20T13:46:33.695Z,9.2
2022-12-20T13:51:36.210Z,9.12
2022-12-20T13:56:38.938Z,8.95
2022-12-20T14:01:41.471Z,8.94
2022-12-20T14:06:44.509Z,8.93
2022-12-20T14:12:04.892Z,8.85
2022-12-20T14:17:07.735Z,8.92
2022-12-20T14:22:10.368Z,8.86
2022-12-20T14:27:13.057Z,8.77
2022-12-20T14:32:15.602Z,8.76
2022-12-20T14:37:18.256Z,8.74
2022-12-20T14:42:21.058Z,8.77
2022-12-20T14:47:23.533Z,8.69
2022-12-20T14:52:26.312Z,8.6
2022-12-20T14:57:32.344Z,8.56
2022-12-20T15:02:35.355Z,8.57
2022-12-20T15:07:59.556Z,8.53
2022-12-20T15:13:02.639Z,8.47
2022-12-20T15:18:05.223Z,8.43
2022-12-20T15:23:07.985Z,8.4
2022-12-20T15:28:10.563Z,8.35
2022-12-20T15:38:15.992Z,8.15
2022-12-20T15:43:18.561Z,8.11
2022-12-20T15:48:21.482Z,8.1
2022-12-20T15:53:24.159Z,8.03
2022-12-20T15:58:26.667Z,8.01
2022-12-20T16:08:32.078Z,7.91
2022-12-20T16:13:34.789Z,7.81
2022-12-20T16:18:37.282Z,7.75
2022-12-20T16:23:40.025Z,7.66
2022-12-20T16:28:42.737Z,7.59
2022-12-20T16:33:48.137Z,7.58
2022-12-20T16:38:50.690Z,7.57
2022-12-20T16:43:56.357Z,7.55
2022-12-20T16:48:59.072Z,7.48
2022-12-20T16:54:18.451Z,7.45
2022-12-20T16:59:21.814Z,7.45
2022-12-20T17:10:19.801Z,7.44
2022-12-20T17:24:23.748Z,7.53
2022-12-20T17:29:26.279Z,7.51
2022-12-20T17:44:33.975Z,7.64
2022-12-20T17:54:40.369Z,7.73
2022-12-20T17:59:42.167Z,7.74
2022-12-20T18:04:44.976Z,7.79
2022-12-20T18:09:47.568Z,7.79
2022-12-20T18:14:50.487Z,7.89
2022-12-20T18:19:53.034Z,7.92
2022-12-20T18:24:55.689Z,7.98
2022-12-20T18:29:58.520Z,7.92
2022-12-20T18:35:03.719Z,7.89
2022-12-20T18:40:06.817Z,7.88
2022-12-20T18:45:09.678Z,7.9
2022-12-20T18:50:12.467Z,7.93
2022-12-20T18:55:15.149Z,8.04
2022-12-20T19:00:17.850Z,7.91
2022-12-20T19:05:20.561Z,7.92
2022-12-20T19:10:23.133Z,7.92
2022-12-20T19:15:25.988Z,7.88
2022-12-20T19:20:28.736Z,7.81
2022-12-20T19:25:31.231Z,7.69
2022-12-20T19:40:38.961Z,7.44
2022-12-20T19:45:41.654Z,7.4
2022-12-20T19:50:44.245Z,7.38
2022-12-20T19:55:46.932Z,7.38
2022-12-20T20:00:49.712Z,7.4
2022-12-20T20:05:52.393Z,7.32
2022-12-20T20:10:55.153Z,7.34
2022-12-20T20:15:57.887Z,7.3
2022-12-20T20:21:03.404Z,7.28
2022-12-20T20:26:05.936Z,7.22
2022-12-20T20:31:11.830Z,7.2
2022-12-20T20:41:17.585Z,7.23
2022-12-20T20:46:20.200Z,7.24
2022-12-20T20:51:22.848Z,7.21
2022-12-20T20:56:25.722Z,7.2
2022-12-20T21:01:28.434Z,7.2
2022-12-20T21:06:40.826Z,7.14
2022-12-20T21:11:33.749Z,7.13
2022-12-20T21:16:36.286Z,7.16
2022-12-20T21:21:39.075Z,7.15
2022-12-20T21:26:44.586Z,7.13
2022-12-20T21:31:47.258Z,7.12
2022-12-20T21:36:49.825Z,7.14
2022-12-20T21:41:55.779Z,7.13
2022-12-20T21:46:57.278Z,7.1
2022-12-20T21:51:59.818Z,7.08
2022-12-20T21:57:02.485Z,7.08
2022-12-20T22:02:05.593Z,7.08
2022-12-20T22:07:07.847Z,7.06
2022-12-20T22:12:10.717Z,7.07
2022-12-20T22:17:13.242Z,7.11
2022-12-20T22:22:17.960Z,7.16
2022-12-20T22:27:20.658Z,7.23
2022-12-20T22:32:23.238Z,7.21
2022-12-20T22:37:26.064Z,7.15
2022-12-20T22:42:28.692Z,7.07
2022-12-20T22:47:34.585Z,7.06
2022-12-20T22:52:34.348Z,7.08
2022-12-20T22:57:37.082Z,7.07
2022-12-20T23:02:39.765Z,7.09
2022-12-20T23:07:42.332Z,7.06
2022-12-20T23:12:45.093Z,7.07
2022-12-20T23:17:47.664Z,7.11
2022-12-20T23:22:50.424Z,7.04
2022-12-20T23:27:53.257Z,7.02
2022-12-20T23:32:56.001Z,6.98
2022-12-20T23:37:58.742Z,6.93
2022-12-20T23:43:01.311Z,6.88
2022-12-20T23:48:03.788Z,6.87
2022-12-20T23:53:06.421Z,6.81
2022-12-20T23:58:08.953Z,6.76
